Time;durP1;ratioP1;P1;durP2;ratioP2;P2;SDS_P1;SDS_P2;PMS_P1;PMS_P2;Temp;Humidity;BMP_temperature;BMP_pressure;BME280_temperature;BME280_humidity;BME280_pressure;Samples;Min_cycle;Max_cycle;Signal;HPM_P1;HPM_P2
2023/10/22 00:00:08;;;;;;;4.93;1.87;;;;;;;8.77;100.00;99345.91;5043681;28;20284;-71
2023/10/22 00:02:36;;;;;;;3.20;1.80;;;;;;;8.73;100.00;99351.16;5047435;28;20195;-71
2023/10/22 00:05:04;;;;;;;5.20;1.30;;;;;;;8.75;100.00;99354.69;5027634;28;20221;-71
2023/10/22 00:07:31;;;;;;;2.70;1.20;;;;;;;8.77;100.00;99345.91;5049152;28;20300;-71
2023/10/22 00:09:58;;;;;;;3.63;1.40;;;;;;;8.71;100.00;99351.16;5044208;28;20223;-71
2023/10/22 00:12:24;;;;;;;1.67;1.07;;;;;;;8.67;100.00;99364.34;5043245;28;20220;-71
2023/10/22 00:14:51;;;;;;;3.47;1.93;;;;;;;8.57;100.00;99355.50;5043577;28;20293;-71
2023/10/22 00:17:17;;;;;;;3.30;1.33;;;;;;;8.64;100.00;99359.94;5045087;28;20268;-71
2023/10/22 00:19:44;;;;;;;1.87;1.30;;;;;;;8.68;100.00;99358.19;5044915;28;20603;-71
2023/10/22 00:22:12;;;;;;;2.30;1.27;;;;;;;8.62;100.00;99366.97;5032500;28;20221;-71
2023/10/22 00:24:39;;;;;;;3.60;1.33;;;;;;;8.52;100.00;99364.28;5045253;28;20298;-71
2023/10/22 00:27:06;;;;;;;2.97;1.40;;;;;;;8.46;100.00;99378.31;5048032;28;20207;-71
2023/10/22 00:29:32;;;;;;;2.53;1.20;;;;;;;8.39;100.00;99373.84;5040770;28;20222;-71
2023/10/22 00:31:59;;;;;;;2.53;1.73;;;;;;;8.34;100.00;99365.03;5046929;28;20213;-71
2023/10/22 00:34:25;;;;;;;3.53;1.50;;;;;;;8.40;100.00;99378.25;5042806;28;20321;-71
2023/10/22 00:36:52;;;;;;;5.17;1.23;;;;;;;8.43;100.00;99362.47;5043140;28;20258;-71
2023/10/22 00:39:18;;;;;;;3.23;1.30;;;;;;;8.53;100.00;99366.91;5041549;28;20235;-71
2023/10/22 00:41:45;;;;;;;2.37;1.20;;;;;;;8.69;100.00;99375.78;5048040;28;20681;-70
2023/10/22 00:44:11;;;;;;;2.17;0.80;;;;;;;8.85;100.00;99384.66;5042706;28;20202;-71
2023/10/22 00:46:38;;;;;;;1.40;0.90;;;;;;;8.96;100.00;99377.66;5048037;28;20282;-71
2023/10/22 00:49:05;;;;;;;3.83;1.10;;;;;;;9.14;100.00;99372.44;5027100;28;20228;-70
2023/10/22 00:51:32;;;;;;;2.57;1.07;;;;;;;9.22;100.00;99370.72;5043298;28;20206;-70
2023/10/22 00:53:58;;;;;;;2.53;1.10;;;;;;;9.38;100.00;99368.97;5044670;28;20221;-70
2023/10/22 00:56:25;;;;;;;3.87;0.80;;;;;;;9.50;100.00;99363.69;5044944;28;20294;-70
2023/10/22 00:58:53;;;;;;;3.87;0.90;;;;;;;9.51;100.00;99369.84;5041160;28;20226;-71
2023/10/22 01:01:19;;;;;;;2.20;0.90;;;;;;;9.47;100.00;99362.81;5044984;28;20217;-71
2023/10/22 01:03:46;;;;;;;2.27;1.00;;;;;;;9.51;100.00;99359.28;5047312;28;20224;-70
2023/10/22 01:06:13;;;;;;;1.97;0.90;;;;;;;9.43;100.00;99365.44;5043830;28;20230;-71
2023/10/22 01:08:41;;;;;;;2.37;1.00;;;;;;;9.40;100.00;99360.16;5042819;28;20230;-71
2023/10/22 01:11:08;;;;;;;1.90;0.97;;;;;;;9.41;100.00;99367.22;5026075;28;20294;-70
2023/10/22 01:13:36;;;;;;;1.43;0.80;;;;;;;9.37;100.00;99370.72;5042450;28;20217;-71
2023/10/22 01:16:03;;;;;;;2.50;0.90;;;;;;;9.33;100.00;99376.00;5039207;28;20735;-71
2023/10/22 01:18:29;;;;;;;2.83;0.97;;;;;;;9.23;100.00;99377.75;5027860;28;20214;-71
2023/10/22 01:20:56;;;;;;;1.93;0.97;;;;;;;9.13;100.00;99381.22;5047201;28;20259;-70
2023/10/22 01:23:23;;;;;;;1.87;0.80;;;;;;;9.10;100.00;99381.22;5039063;28;20195;-71
2023/10/22 01:25:50;;;;;;;1.60;0.90;;;;;;;9.12;100.00;99379.47;5039313;28;20255;-70
2023/10/22 01:28:17;;;;;;;2.43;0.80;;;;;;;9.13;100.00;99393.56;5042756;28;20225;-70
2023/10/22 01:30:43;;;;;;;1.07;0.73;;;;;;;9.08;100.00;99394.41;5049346;28;20202;-70
2023/10/22 01:33:10;;;;;;;1.90;0.90;;;;;;;9.04;100.00;99391.78;5038830;28;20232;-71
2023/10/22 01:35:37;;;;;;;2.43;1.00;;;;;;;9.02;100.00;99386.47;5029067;28;20294;-70
2023/10/22 01:38:03;;;;;;;4.27;1.00;;;;;;;9.07;100.00;99384.72;5042078;28;20257;-70
2023/10/22 01:40:30;;;;;;;1.67;0.73;;;;;;;9.09;100.00;99385.63;5046763;28;20233;-70
2023/10/22 01:42:56;;;;;;;2.03;0.73;;;;;;;9.06;100.00;99396.19;5039480;28;20201;-71
2023/10/22 01:45:24;;;;;;;2.60;0.73;;;;;;;9.10;100.00;99389.16;5045459;28;20197;-70
2023/10/22 01:47:50;;;;;;;4.20;1.33;;;;;;;9.13;100.00;99385.63;5042446;28;20209;-71
2023/10/22 01:50:17;;;;;;;3.13;1.00;;;;;;;9.15;100.00;99387.41;5045490;28;20325;-70
2023/10/22 01:52:43;;;;;;;1.60;0.77;;;;;;;9.13;100.00;99386.50;5038970;28;20585;-70
2023/10/22 01:55:10;;;;;;;4.50;0.80;;;;;;;9.10;100.00;99384.75;5028209;28;20310;-71
2023/10/22 01:57:38;;;;;;;2.03;1.00;;;;;;;9.08;100.00;99389.13;5044052;28;20209;-71
2023/10/22 02:00:05;;;;;;;1.80;0.77;;;;;;;9.14;100.00;99392.66;5045140;28;20212;-70
2023/10/22 02:02:34;;;;;;;3.70;1.00;;;;;;;9.24;100.00;99392.72;5044319;28;20227;-71
2023/10/22 02:05:00;;;;;;;4.90;0.97;;;;;;;9.31;100.00;99397.16;5043987;28;20585;-70
2023/10/22 02:07:27;;;;;;;1.80;0.80;;;;;;;9.30;100.00;99402.44;5045649;28;20209;-70
2023/10/22 02:09:54;;;;;;;2.30;0.70;;;;;;;9.33;100.00;99397.16;5027106;28;20228;-71
2023/10/22 02:12:27;;;;;;;2.67;1.10;;;;;;;9.37;100.00;99415.66;5046541;28;20215;-71
2023/10/22 02:14:54;;;;;;;4.50;1.80;;;;;;;9.35;100.00;99414.75;5046124;28;20312;-71
2023/10/22 02:17:21;;;;;;;5.53;1.90;;;;;;;9.32;100.00;99416.53;5047232;28;20581;-71
2023/10/22 02:19:47;;;;;;;2.80;1.60;;;;;;;9.27;100.00;99418.28;5043320;28;20326;-71
2023/10/22 02:22:16;;;;;;;2.37;1.30;;;;;;;9.19;100.00;99418.22;5044556;28;20206;-71
2023/10/22 02:24:43;;;;;;;4.23;1.50;;;;;;;9.18;100.00;99423.50;5036257;28;20210;-71
2023/10/22 02:27:09;;;;;;;2.20;1.50;;;;;;;9.06;100.00;99412.03;5026202;28;20204;-71
2023/10/22 02:29:36;;;;;;;6.33;1.80;;;;;;;9.11;100.00;99418.19;5044523;28;20228;-70
2023/10/22 02:32:06;;;;;;;2.83;1.50;;;;;;;9.05;100.00;99423.47;5045693;28;20256;-70
2023/10/22 02:34:34;;;;;;;4.23;1.57;;;;;;;8.98;100.00;99419.03;5040280;28;20223;-70
2023/10/22 02:37:01;;;;;;;2.93;1.50;;;;;;;8.84;100.00;99422.50;5045162;28;20209;-71
2023/10/22 02:39:28;;;;;;;2.93;1.53;;;;;;;8.63;100.00;99420.63;5045847;28;20682;-71
2023/10/22 02:41:54;;;;;;;7.27;1.50;;;;;;;8.60;100.00;99424.13;5045527;28;20589;-70
2023/10/22 02:44:21;;;;;;;2.30;1.50;;;;;;;8.57;100.00;99423.22;5036458;28;20203;-70
2023/10/22 02:46:48;;;;;;;2.43;1.40;;;;;;;8.41;100.00;99420.50;5044483;28;20679;-70
2023/10/22 02:49:15;;;;;;;3.07;1.37;;;;;;;8.27;100.00;99427.41;5045929;28;20231;-71
2023/10/22 02:51:41;;;;;;;4.27;1.40;;;;;;;8.20;100.00;99424.72;5046088;28;20639;-70
2023/10/22 02:54:08;;;;;;;2.43;1.30;;;;;;;8.17;100.00;99425.56;5038877;28;20215;-70
2023/10/22 02:56:34;;;;;;;2.37;1.17;;;;;;;8.18;100.00;99422.94;5041282;28;20212;-70
2023/10/22 02:59:01;;;;;;;3.50;1.50;;;;;;;8.13;100.00;99429.94;5043362;28;20231;-70
2023/10/22 03:01:29;;;;;;;3.57;1.50;;;;;;;8.09;100.00;99428.16;5029778;28;20205;-70
2023/10/22 03:03:55;;;;;;;1.50;1.03;;;;;;;7.99;100.00;99434.19;5038091;28;20343;-70
2023/10/22 03:06:22;;;;;;;2.50;1.10;;;;;;;7.94;100.00;99429.75;5029359;28;20203;-70
2023/10/22 03:08:48;;;;;;;4.80;1.17;;;;;;;8.01;100.00;99423.69;5045329;28;20234;-70
2023/10/22 03:11:16;;;;;;;5.70;1.00;;;;;;;8.16;100.00;99429.09;5044318;28;20212;-70
2023/10/22 03:13:44;;;;;;;2.53;0.90;;;;;;;8.21;100.00;99427.34;5027371;28;20718;-70
2023/10/22 03:16:14;;;;;;;4.40;0.90;;;;;;;8.40;100.00;99426.63;5044770;28;20386;-70
2023/10/22 03:18:44;;;;;;;2.70;1.00;;;;;;;8.59;100.00;99430.28;5045761;28;20239;-70
2023/10/22 03:21:24;;;;;;;1.73;1.00;;;;;;;8.74;100.00;99438.28;5047401;28;20199;-70
2023/10/22 03:23:50;;;;;;;3.03;1.00;;;;;;;9.00;100.00;99430.50;5045714;28;20199;-71
2023/10/22 03:26:18;;;;;;;1.77;1.00;;;;;;;9.18;100.00;99439.34;5043026;28;20708;-70
2023/10/22 03:28:45;;;;;;;4.80;0.90;;;;;;;9.24;100.00;99434.13;5044371;28;20704;-70
2023/10/22 03:31:13;;;;;;;4.77;0.90;;;;;;;9.44;100.00;99435.03;5029057;28;20291;-70
2023/10/22 03:33:39;;;;;;;5.50;0.80;;;;;;;9.47;100.00;99436.81;5042701;28;20756;-71
2023/10/22 03:36:09;;;;;;;2.60;0.80;;;;;;;9.48;100.00;99442.09;5044900;28;20213;-71
2023/10/22 03:38:35;;;;;;;2.87;1.10;;;;;;;9.59;100.00;99447.41;5046982;28;20222;-71
2023/10/22 03:41:03;;;;;;;5.63;1.10;;;;;;;9.72;100.00;99450.09;5050652;28;20300;-70
2023/10/22 03:43:31;;;;;;;2.50;0.80;;;;;;;9.85;100.00;99436.88;5049768;28;20282;-70
2023/10/22 03:45:58;;;;;;;1.60;0.93;;;;;;;10.00;100.00;99447.44;5048077;28;20203;-70
2023/10/22 03:48:26;;;;;;;2.13;0.80;;;;;;;10.22;100.00;99438.69;5049492;28;20248;-70
2023/10/22 03:50:54;;;;;;;4.10;1.10;;;;;;;10.36;100.00;99438.66;5045607;28;20214;-70
2023/10/22 03:53:21;;;;;;;1.53;0.70;;;;;;;10.41;100.00;99436.91;5048625;28;20620;-71
2023/10/22 03:55:48;;;;;;;1.90;0.80;;;;;;;10.46;100.00;99443.09;5038245;28;20682;-70
2023/10/22 03:58:14;;;;;;;2.57;0.80;;;;;;;10.48;100.00;99451.91;5049041;28;20699;-70
2023/10/22 04:00:41;;;;;;;3.40;1.00;;;;;;;10.55;100.00;99456.28;5053318;28;20198;-70
2023/10/22 04:03:07;;;;;;;3.03;1.03;;;;;;;10.57;100.00;99457.19;5045307;28;20582;-71
2023/10/22 04:05:34;;;;;;;3.00;1.00;;;;;;;10.64;100.00;99466.88;5049220;28;20201;-70
2023/10/22 04:08:00;;;;;;;4.33;1.00;;;;;;;10.70;100.00;99471.25;5043873;28;20310;-70
2023/10/22 04:10:26;;;;;;;3.30;0.90;;;;;;;10.79;100.00;99473.88;5054919;22;20245;-72
2023/10/22 04:12:53;;;;;;;2.67;1.00;;;;;;;10.86;100.00;99477.44;5044337;28;20579;-71
2023/10/22 04:15:19;;;;;;;2.13;0.70;;;;;;;10.99;100.00;99480.03;5052053;28;20241;-71
2023/10/22 04:17:49;;;;;;;3.80;0.90;;;;;;;11.03;100.00;99480.00;5044055;28;20206;-71
2023/10/22 04:20:16;;;;;;;2.63;0.77;;;;;;;11.10;100.00;99489.69;5048314;28;20251;-72
2023/10/22 04:22:43;;;;;;;4.50;1.00;;;;;;;11.13;100.00;99485.28;5041481;28;22003;-69
2023/10/22 04:25:11;;;;;;;2.13;0.93;;;;;;;11.23;100.00;99494.09;5041196;28;20196;-69
2023/10/22 04:27:37;;;;;;;6.53;1.10;;;;;;;11.36;100.00;99489.63;5043918;28;20216;-69
2023/10/22 04:30:04;;;;;;;4.00;1.20;;;;;;;11.35;100.00;99488.75;5044420;28;20233;-69
2023/10/22 04:32:33;;;;;;;3.33;0.80;;;;;;;11.41;100.00;99501.09;5043694;28;20200;-70
2023/10/22 04:34:59;;;;;;;2.73;0.93;;;;;;;11.40;100.00;99488.72;5042166;28;20644;-70
2023/10/22 04:37:28;;;;;;;3.10;0.80;;;;;;;11.45;100.00;99501.06;5047164;28;20210;-69
2023/10/22 04:39:58;;;;;;;2.60;1.00;;;;;;;11.46;100.00;99497.50;5048244;28;20247;-69
2023/10/22 04:42:27;;;;;;;2.83;0.90;;;;;;;11.47;100.00;99495.75;5045070;28;20201;-68
2023/10/22 04:44:55;;;;;;;1.90;0.70;;;;;;;11.43;100.00;99484.28;5046506;28;20676;-69
2023/10/22 04:47:21;;;;;;;2.00;0.90;;;;;;;11.46;100.00;99507.25;5045593;28;20207;-69
2023/10/22 04:49:50;;;;;;;1.80;0.77;;;;;;;11.49;100.00;99508.09;5039156;28;20244;-69
2023/10/22 04:52:31;;;;;;;5.73;1.10;;;;;;;11.51;100.00;99510.75;5047974;28;20209;-70
2023/10/22 04:54:59;;;;;;;3.33;1.00;;;;;;;11.53;100.00;99507.19;5045697;28;20252;-69
2023/10/22 04:57:26;;;;;;;4.33;1.07;;;;;;;11.54;100.00;99505.44;5043273;28;20197;-69
2023/10/22 04:59:54;;;;;;;4.83;0.80;;;;;;;11.56;100.00;99506.31;5046774;28;20767;-67
2023/10/22 05:02:20;;;;;;;4.47;0.90;;;;;;;11.63;100.00;99509.84;5046529;28;20226;-68
2023/10/22 05:04:49;;;;;;;3.00;0.93;;;;;;;11.66;100.00;99513.34;5041869;28;20256;-71
2023/10/22 05:07:15;;;;;;;4.20;0.90;;;;;;;11.65;100.00;99521.31;5048021;28;20205;-68
2023/10/22 05:09:42;;;;;;;3.13;1.73;;;;;;;11.66;100.00;99520.41;5047174;28;20325;-68
2023/10/22 05:12:10;;;;;;;2.47;1.43;;;;;;;11.67;100.00;99525.72;5045711;28;20206;-68
2023/10/22 05:14:37;;;;;;;3.80;0.90;;;;;;;11.67;100.00;99532.78;5043200;28;20252;-69
2023/10/22 05:17:05;;;;;;;6.67;1.10;;;;;;;11.60;100.00;99521.31;5046940;28;20225;-67
2023/10/22 05:19:32;;;;;;;2.40;1.10;;;;;;;11.65;100.00;99534.56;5044163;28;20236;-67
2023/10/22 05:21:58;;;;;;;2.53;0.60;;;;;;;11.68;100.00;99539.88;5047050;28;20218;-68
2023/10/22 05:24:25;;;;;;;5.13;1.00;;;;;;;11.73;100.00;99538.94;5041392;28;20737;-69
2023/10/22 05:26:52;;;;;;;0.90;0.70;;;;;;;11.69;100.00;99542.50;5046379;28;20205;-69
2023/10/22 05:29:19;;;;;;;1.70;0.80;;;;;;;11.65;100.00;99543.41;5044285;28;20225;-69
2023/10/22 05:31:45;;;;;;;3.63;0.90;;;;;;;11.60;100.00;99537.22;5039215;28;20663;-68
2023/10/22 05:34:12;;;;;;;4.27;1.03;;;;;;;11.54;100.00;99534.59;5041899;28;20276;-69
2023/10/22 05:36:38;;;;;;;3.77;0.87;;;;;;;11.42;100.00;99547.91;5046478;28;20300;-69
2023/10/22 05:39:04;;;;;;;4.60;1.23;;;;;;;11.35;100.00;99552.34;5046345;28;20225;-68
2023/10/22 05:41:31;;;;;;;2.90;0.93;;;;;;;11.32;100.00;99552.38;5045612;28;20583;-69
2023/10/22 05:44:00;;;;;;;1.43;0.80;;;;;;;11.26;100.00;99555.94;5042033;28;20210;-68
2023/10/22 05:46:28;;;;;;;3.53;0.90;;;;;;;11.19;100.00;99558.56;5044335;28;20288;-69
2023/10/22 05:48:55;;;;;;;4.03;0.93;;;;;;;11.29;100.00;99569.16;5045130;28;20230;-68
2023/10/22 05:51:21;;;;;;;6.40;0.80;;;;;;;11.35;100.00;99572.69;5042486;28;20211;-69
2023/10/22 05:53:48;;;;;;;2.17;0.70;;;;;;;11.41;100.00;99572.66;5040473;28;20409;-70
2023/10/22 05:56:14;;;;;;;3.07;0.87;;;;;;;11.40;100.00;99578.84;5045373;28;20220;-68
2023/10/22 05:58:41;;;;;;;5.43;1.00;;;;;;;11.39;100.00;99575.31;5043810;28;20589;-69
2023/10/22 06:01:08;;;;;;;4.30;1.00;;;;;;;11.50;100.00;99585.88;5041272;28;20697;-69
2023/10/22 06:03:35;;;;;;;1.87;0.70;;;;;;;11.42;100.00;99577.06;5038682;28;20197;-70
2023/10/22 06:06:03;;;;;;;3.87;0.90;;;;;;;11.53;100.00;99592.06;5046939;28;20203;-69
2023/10/22 06:08:29;;;;;;;0.80;0.77;;;;;;;11.54;100.00;99599.13;5045208;28;20202;-69
2023/10/22 06:10:56;;;;;;;3.67;1.00;;;;;;;11.59;100.00;99599.97;5051172;28;20202;-70
2023/10/22 06:13:22;;;;;;;7.37;1.10;;;;;;;11.63;100.00;99603.53;5050698;28;20244;-69
2023/10/22 06:15:48;;;;;;;3.27;0.97;;;;;;;11.70;100.00;99605.28;5060092;28;20222;-68
2023/10/22 06:18:15;;;;;;;4.27;1.30;;;;;;;11.79;100.00;99613.22;5047043;28;20206;-68
2023/10/22 06:20:41;;;;;;;2.83;0.80;;;;;;;11.87;100.00;99610.53;5038702;28;20237;-68
2023/10/22 06:23:08;;;;;;;4.40;1.10;;;;;;;11.98;100.00;99611.34;5042371;28;20212;-68
2023/10/22 06:25:35;;;;;;;4.97;1.07;;;;;;;12.08;100.00;99618.41;5048010;28;20410;-67
2023/10/22 06:28:01;;;;;;;2.93;0.83;;;;;;;12.21;100.00;99621.88;5044980;28;20213;-71
2023/10/22 06:30:30;;;;;;;2.37;0.80;;;;;;;12.27;100.00;99616.50;5047131;28;20222;-69
2023/10/22 06:32:58;;;;;;;2.43;1.00;;;;;;;12.31;100.00;99631.53;5037627;28;20201;-69
2023/10/22 06:35:29;;;;;;;5.00;1.17;;;;;;;12.37;100.00;99630.59;5042113;28;20226;-68
2023/10/22 06:37:56;;;;;;;2.73;0.90;;;;;;;12.38;100.00;99645.66;5043357;28;20665;-68
2023/10/22 06:40:23;;;;;;;5.10;1.20;;;;;;;12.41;100.00;99637.69;5043543;28;20228;-68
2023/10/22 06:42:50;;;;;;;2.30;0.83;;;;;;;12.46;100.00;99644.75;5045509;28;20208;-69
2023/10/22 06:45:17;;;;;;;3.80;0.77;;;;;;;12.45;100.00;99648.28;5044395;28;20195;-66
2023/10/22 06:47:45;;;;;;;3.97;1.00;;;;;;;12.56;100.00;99656.19;5046712;28;20229;-69
2023/10/22 06:50:13;;;;;;;3.07;0.90;;;;;;;12.58;100.00;99654.41;5041783;28;20218;-69
2023/10/22 06:52:42;;;;;;;5.93;1.33;;;;;;;12.63;100.00;99664.97;5039650;28;20237;-69
2023/10/22 06:55:10;;;;;;;4.73;1.17;;;;;;;12.68;100.00;99665.84;5046463;28;20215;-68
2023/10/22 06:57:37;;;;;;;5.77;1.50;;;;;;;12.72;100.00;99662.25;5049048;28;20552;-69
2023/10/22 07:00:04;;;;;;;8.87;1.10;;;;;;;12.79;100.00;99669.28;5045955;28;20229;-67
2023/10/22 07:02:33;;;;;;;4.00;1.10;;;;;;;12.86;100.00;99657.75;5043171;28;20241;-69
2023/10/22 07:04:59;;;;;;;2.33;1.00;;;;;;;12.96;100.00;99667.41;5052776;28;20202;-68
2023/10/22 07:07:25;;;;;;;5.33;1.10;;;;;;;12.96;100.00;99672.72;5049449;28;20199;-68
2023/10/22 07:09:52;;;;;;;4.80;0.90;;;;;;;12.99;100.00;99663.84;5048506;28;20226;-67
2023/10/22 07:12:19;;;;;;;3.93;1.00;;;;;;;12.92;100.00;99665.66;5048346;28;20198;-65
2023/10/22 07:14:46;;;;;;;6.33;0.93;;;;;;;12.93;100.00;99669.22;5047602;28;20218;-68
2023/10/22 07:17:12;;;;;;;3.90;0.90;;;;;;;12.98;100.00;99665.63;5050866;28;20199;-68
2023/10/22 07:19:39;;;;;;;4.33;0.80;;;;;;;12.91;100.00;99674.53;5045096;28;20389;-68
2023/10/22 07:22:05;;;;;;;3.27;0.90;;;;;;;12.95;100.00;99680.69;5052378;28;20202;-69
2023/10/22 07:24:33;;;;;;;2.40;1.10;;;;;;;13.05;100.00;99675.28;5045217;28;20246;-68
2023/10/22 07:27:00;;;;;;;4.43;1.00;;;;;;;13.20;100.00;99678.75;5046713;28;20737;-66
2023/10/22 07:29:27;;;;;;;3.07;1.00;;;;;;;13.31;100.00;99675.13;5044686;28;20232;-68
2023/10/22 07:31:53;;;;;;;2.40;0.90;;;;;;;13.37;100.00;99676.84;5047245;28;20262;-68
2023/10/22 07:34:19;;;;;;;3.50;0.90;;;;;;;13.41;98.92;99673.25;5047411;28;20210;-65
2023/10/22 07:36:46;;;;;;;3.53;0.97;;;;;;;13.50;99.39;99686.44;5049555;28;20228;-67
2023/10/22 07:39:12;;;;;;;3.10;0.90;;;;;;;13.61;98.25;99689.91;5047463;28;20241;-67
2023/10/22 07:41:39;;;;;;;2.77;0.90;;;;;;;13.63;95.74;99690.78;5046010;28;20210;-68
2023/10/22 07:44:05;;;;;;;2.87;0.93;;;;;;;13.64;95.15;99700.53;5047756;28;20209;-67
2023/10/22 07:46:32;;;;;;;4.37;1.13;;;;;;;13.61;94.42;99700.56;5041430;28;20203;-67
2023/10/22 07:48:58;;;;;;;5.13;0.97;;;;;;;13.58;94.14;99697.88;5046395;28;20233;-67
2023/10/22 07:51:27;;;;;;;5.20;0.90;;;;;;;13.59;93.51;99691.66;5048762;28;20837;-67
2023/10/22 07:53:53;;;;;;;4.17;0.80;;;;;;;13.60;94.13;99695.22;5044748;28;21073;-67
2023/10/22 07:56:20;;;;;;;5.00;1.20;;;;;;;13.56;94.09;99706.78;5039621;28;20606;-65
2023/10/22 07:58:46;;;;;;;2.80;0.90;;;;;;;13.56;94.93;99702.34;5044635;28;20297;-67
2023/10/22 08:01:13;;;;;;;4.17;1.17;;;;;;;13.58;95.58;99712.97;5046602;28;20265;-68
2023/10/22 08:03:39;;;;;;;5.97;1.17;;;;;;;13.47;95.12;99718.41;5048569;28;20211;-66
2023/10/22 08:06:06;;;;;;;6.60;1.00;;;;;;;13.49;96.36;99714.81;5044049;28;20203;-67
2023/10/22 08:08:33;;;;;;;2.33;0.77;;;;;;;13.49;96.17;99719.28;5049382;28;20203;-67
2023/10/22 08:11:01;;;;;;;2.50;0.93;;;;;;;13.50;97.19;99713.06;5045610;28;20202;-67
2023/10/22 08:13:28;;;;;;;3.37;1.00;;;;;;;13.51;96.73;99727.22;5047515;28;20231;-66
2023/10/22 08:15:55;;;;;;;2.93;0.90;;;;;;;13.56;96.83;99722.75;5037896;28;20219;-67
2023/10/22 08:18:22;;;;;;;5.20;0.97;;;;;;;13.55;97.49;99721.88;5044860;28;20753;-66
2023/10/22 08:20:49;;;;;;;4.13;1.10;;;;;;;13.49;97.59;99722.81;5045317;28;20660;-67
2023/10/22 08:23:15;;;;;;;3.03;1.03;;;;;;;13.40;98.08;99736.19;5043578;28;20298;-67
2023/10/22 08:25:52;;;;;;;2.93;1.00;;;;;;;13.36;99.60;99734.47;5044844;28;20199;-67
2023/10/22 08:28:18;;;;;;;5.30;1.17;;;;;;;13.36;100.00;99750.41;5045290;28;20206;-67
2023/10/22 08:30:49;;;;;;;3.17;0.87;;;;;;;13.34;100.00;99746.00;5040912;28;20730;-66
2023/10/22 08:33:16;;;;;;;4.20;0.97;;;;;;;13.28;100.00;99752.25;5047723;28;20769;-66
2023/10/22 08:35:43;;;;;;;4.60;1.00;;;;;;;13.33;100.00;99757.53;5044245;28;20693;-67
2023/10/22 08:38:09;;;;;;;2.23;0.90;;;;;;;13.38;100.00;99759.25;5046320;28;20202;-67
2023/10/22 08:40:38;;;;;;;3.00;0.90;;;;;;;13.43;100.00;99759.22;5044947;28;20254;-68
2023/10/22 08:43:06;;;;;;;3.80;0.93;;;;;;;13.51;99.81;99753.84;5044402;28;20211;-67
2023/10/22 08:45:32;;;;;;;3.10;0.90;;;;;;;13.56;98.86;99760.00;5032907;28;20200;-67
2023/10/22 08:48:03;;;;;;;5.07;1.00;;;;;;;13.63;98.55;99764.38;5044674;28;20207;-67
2023/10/22 08:50:32;;;;;;;5.47;1.13;;;;;;;13.71;98.37;99765.19;5047123;28;20215;-66
2023/10/22 08:52:59;;;;;;;5.03;0.97;;;;;;;13.76;97.19;99771.34;5049678;28;20210;-67
2023/10/22 08:55:28;;;;;;;5.27;1.20;;;;;;;13.80;96.93;99775.75;5042851;28;20221;-67
2023/10/22 08:57:56;;;;;;;3.37;1.00;;;;;;;13.89;96.91;99780.09;5047787;28;20571;-67
2023/10/22 09:00:25;;;;;;;2.67;1.10;;;;;;;14.05;94.06;99782.59;5044887;28;20215;-68
2023/10/22 09:02:53;;;;;;;4.23;1.10;;;;;;;14.22;92.17;99778.88;5042537;28;20199;-67
2023/10/22 09:05:20;;;;;;;3.43;1.00;;;;;;;14.29;90.02;99776.09;5046808;28;20296;-65
2023/10/22 09:07:50;;;;;;;6.20;1.40;;;;;;;14.44;88.75;99783.09;5049011;28;20210;-67
2023/10/22 09:10:29;;;;;;;6.30;1.37;;;;;;;14.67;86.93;99785.44;5041022;28;20305;-66
2023/10/22 09:13:15;;;;;;;3.00;1.00;;;;;;;14.72;85.12;99770.28;5040571;28;20198;-67
2023/10/22 09:15:47;;;;;;;2.77;1.00;;;;;;;14.83;83.49;99787.03;5046947;28;20227;-67
2023/10/22 09:18:16;;;;;;;5.77;1.10;;;;;;;14.93;83.43;99801.13;5048740;28;20203;-66
2023/10/22 09:20:46;;;;;;;5.23;0.90;;;;;;;14.91;82.02;99794.91;5044729;28;20203;-67
2023/10/22 09:23:18;;;;;;;3.67;0.63;;;;;;;14.75;83.75;99796.88;5040172;28;20207;-67
2023/10/22 09:26:07;;;;;;;3.03;0.77;;;;;;;14.82;83.30;99800.38;5048099;28;20199;-67
2023/10/22 09:28:34;;;;;;;3.43;0.90;;;;;;;14.95;83.14;99807.31;5046608;28;20212;-67
2023/10/22 09:31:03;;;;;;;1.93;1.10;;;;;;;14.94;82.96;99806.44;5040602;28;20206;-67
2023/10/22 09:33:37;;;;;;;4.10;1.17;;;;;;;14.75;83.68;99818.22;5045262;28;20210;-67
2023/10/22 09:36:06;;;;;;;5.03;0.83;;;;;;;14.73;83.16;99809.34;5048928;28;20218;-67
2023/10/22 09:38:49;;;;;;;2.57;0.90;;;;;;;14.68;84.02;99816.53;5044744;28;20260;-67
2023/10/22 09:41:31;;;;;;;2.60;0.87;;;;;;;14.73;84.00;99810.25;5045324;28;20209;-67
2023/10/22 09:43:59;;;;;;;4.27;1.00;;;;;;;14.87;83.29;99810.09;5042806;28;20202;-67
2023/10/22 09:46:33;;;;;;;4.53;0.90;;;;;;;15.07;82.83;99812.47;5042907;28;20192;-67
2023/10/22 09:49:01;;;;;;;2.53;0.87;;;;;;;15.27;82.39;99812.19;5043231;28;20306;-66
2023/10/22 09:51:32;;;;;;;5.47;0.97;;;;;;;15.46;80.31;99812.78;5045270;28;20813;-67
2023/10/22 09:54:02;;;;;;;2.07;1.07;;;;;;;15.59;79.67;99820.59;5046497;28;20285;-67
2023/10/22 09:56:32;;;;;;;2.33;0.90;;;;;;;15.66;79.71;99822.28;5042579;28;20226;-67
2023/10/22 09:59:11;;;;;;;5.77;1.13;;;;;;;15.63;78.96;99814.31;5045686;28;20227;-67
2023/10/22 10:01:39;;;;;;;3.30;1.17;;;;;;;15.81;77.92;99815.78;5037514;28;20218;-67
2023/10/22 10:04:06;;;;;;;3.13;0.87;;;;;;;16.03;76.65;99820.75;5051640;28;20245;-67
2023/10/22 10:06:36;;;;;;;3.30;1.00;;;;;;;16.16;75.82;99820.50;5040573;28;20237;-67
2023/10/22 10:09:03;;;;;;;4.07;1.20;;;;;;;16.12;75.52;99813.47;5062720;22;20298;-69
2023/10/22 10:11:31;;;;;;;4.40;1.17;;;;;;;16.08;75.92;99824.22;5041805;28;20615;-69
2023/10/22 10:13:58;;;;;;;3.57;1.27;;;;;;;16.14;75.94;99827.66;5025191;28;20210;-68
2023/10/22 10:16:25;;;;;;;4.03;1.50;;;;;;;16.36;75.50;99824.56;5046926;28;20218;-69
2023/10/22 10:19:02;;;;;;;3.23;1.03;;;;;;;16.51;74.20;99817.16;5046478;28;20199;-69
2023/10/22 10:21:48;;;;;;;4.70;1.00;;;;;;;16.64;72.92;99828.47;5038606;28;20194;-68
2023/10/22 10:24:14;;;;;;;2.63;1.00;;;;;;;16.64;73.27;99828.47;5045882;28;20213;-69
2023/10/22 10:26:41;;;;;;;2.67;0.97;;;;;;;16.51;74.00;99824.31;5042996;28;20624;-69
2023/10/22 10:29:07;;;;;;;7.33;0.97;;;;;;;16.18;74.93;99833.84;5044980;28;20205;-68
2023/10/22 10:31:34;;;;;;;3.57;1.13;;;;;;;16.17;74.66;99829.41;5046117;28;20297;-69
2023/10/22 10:34:01;;;;;;;4.80;1.00;;;;;;;16.19;74.92;99833.81;5045277;28;20257;-68
2023/10/22 10:36:29;;;;;;;5.97;1.70;;;;;;;16.31;74.21;99843.38;5022986;28;20219;-69
2023/10/22 10:39:33;;;;;;;3.20;0.87;;;;;;;16.37;73.54;99840.59;5047364;28;20226;-68
2023/10/22 10:41:59;;;;;;;3.20;0.90;;;;;;;16.42;73.33;99837.84;5042911;28;20202;-69
2023/10/22 10:44:29;;;;;;;3.87;1.50;;;;;;;16.47;73.31;99833.28;5043355;28;20199;-68
2023/10/22 10:47:21;;;;;;;2.53;0.97;;;;;;;16.61;73.59;99834.78;5042646;28;20230;-69
2023/10/22 10:50:05;;;;;;;2.90;1.10;;;;;;;16.76;73.15;99830.03;5036252;28;20541;-69
2023/10/22 10:52:55;;;;;;;2.43;1.20;;;;;;;16.83;73.67;99831.72;5037117;28;20280;-69
2023/10/22 10:55:21;;;;;;;5.60;1.07;;;;;;;16.82;72.66;99833.50;5038911;28;20202;-69
2023/10/22 10:57:50;;;;;;;2.87;0.97;;;;;;;16.82;73.85;99837.97;5047430;28;20209;-70
2023/10/22 11:00:28;;;;;;;6.13;1.10;;;;;;;16.60;72.88;99833.00;5039087;28;20230;-70
2023/10/22 11:02:57;;;;;;;3.13;1.00;;;;;;;16.40;73.79;99840.53;5034954;28;20292;-69
2023/10/22 11:05:31;;;;;;;2.60;1.13;;;;;;;16.24;75.72;99837.28;5041904;28;20278;-69
2023/10/22 11:07:57;;;;;;;3.43;0.90;;;;;;;16.16;75.60;99838.31;5043041;28;20217;-70
2023/10/22 11:10:24;;;;;;;4.47;1.10;;;;;;;16.09;75.62;99845.56;5041080;28;20233;-69
2023/10/22 11:12:51;;;;;;;4.37;1.50;;;;;;;16.03;76.62;99844.81;5043263;28;20211;-70
2023/10/22 11:15:17;;;;;;;3.27;1.40;;;;;;;16.01;77.01;99847.50;5043876;28;20207;-69
2023/10/22 11:17:45;;;;;;;3.17;1.50;;;;;;;15.94;75.69;99852.03;5044586;28;20199;-69
2023/10/22 11:20:15;;;;;;;4.40;1.83;;;;;;;15.96;77.03;99844.88;5042132;28;20233;-69
2023/10/22 11:22:41;;;;;;;3.73;1.33;;;;;;;15.92;77.82;99851.19;5045246;28;20205;-69
2023/10/22 11:25:09;;;;;;;3.40;1.27;;;;;;;15.97;78.06;99845.75;5042458;28;20202;-71
2023/10/22 11:27:38;;;;;;;2.83;1.67;;;;;;;15.87;77.05;99855.72;5025259;28;20199;-69
2023/10/22 11:30:06;;;;;;;1.93;1.40;;;;;;;15.94;77.20;99859.16;5043208;28;20238;-69
2023/10/22 11:32:37;;;;;;;4.33;1.70;;;;;;;15.94;76.58;99852.03;5044345;28;20203;-69
2023/10/22 11:35:07;;;;;;;2.87;1.40;;;;;;;15.96;77.08;99863.56;5040198;28;20205;-70